Terminal Aerodrome Forecast
Issued by NWS Melbourne, FL

Home | Current Version | Previous Version | Text Only | Print | Product List | Glossary On
Versions: 1 2 3 4 5 6 7 8 9 10 11 12 13 14 15 16
351
FTUS42 KMLB 181534 AAA
TAFVRB
TAF AMD
KVRB 181534Z 1816/1912 08015G20KT P6SM VCSH SCT025 BKN060
     FM181900 05014G20KT P6SM SCT030 BKN080
     FM190000 06009KT P6SM FEW030 BKN050=

USA.gov is the U.S. government's official web portal to all federal, state and local government web resources and services.